Time;durP1;ratioP1;P1;durP2;ratioP2;P2;SDS_P1;SDS_P2;PMS_P1;PMS_P2;Temp;Humidity;BMP_temperature;BMP_pressure;BME280_temperature;BME280_humidity;BME280_pressure;Samples;Min_cycle;Max_cycle;Signal;HPM_P1;HPM_P2
2023/12/21 00:00:04;;;;;;;18.08;10.85;;;;;;;;;;2086790;28;20059;-78
2023/12/21 00:01:25;;;;;;;23.75;10.70;;;;;;;;;;2096155;28;20028;-75
2023/12/21 00:02:46;;;;;;;24.48;11.40;;;;;;;;;;2090716;28;20029;-77
2023/12/21 00:04:06;;;;;;;25.90;11.15;;;;;;;;;;2086377;28;20029;-77
2023/12/21 00:05:27;;;;;;;22.33;11.05;;;;;;;;;;2096012;28;20380;-77
2023/12/21 00:06:48;;;;;;;17.60;10.60;;;;;;;;;;2089202;28;20036;-78
2023/12/21 00:08:09;;;;;;;23.13;10.70;;;;;;;;;;2089869;28;20041;-77
2023/12/21 00:09:30;;;;;;;19.92;10.48;;;;;;;;;;2081265;28;20412;-76
2023/12/21 00:10:51;;;;;;;19.17;12.02;;;;;;;;;;2088868;28;20018;-77
2023/12/21 00:12:12;;;;;;;24.17;11.00;;;;;;;;;;2076424;28;20029;-77
2023/12/21 00:13:34;;;;;;;20.45;11.90;;;;;;;;;;2084290;28;20029;-76
2023/12/21 00:14:55;;;;;;;27.08;11.68;;;;;;;;;;2080063;28;20033;-77
2023/12/21 00:16:16;;;;;;;26.88;11.35;;;;;;;;;;2085526;28;20476;-77
2023/12/21 00:17:37;;;;;;;21.52;11.50;;;;;;;;;;2084610;28;21402;-77
2023/12/21 00:18:58;;;;;;;19.58;11.00;;;;;;;;;;2079132;28;20095;-76
2023/12/21 00:20:20;;;;;;;23.10;12.05;;;;;;;;;;2075842;28;20100;-78
2023/12/21 00:21:41;;;;;;;23.45;11.30;;;;;;;;;;2074795;28;20109;-78
2023/12/21 00:23:02;;;;;;;23.67;11.60;;;;;;;;;;2074606;28;20439;-77
2023/12/21 00:24:24;;;;;;;22.60;10.95;;;;;;;;;;2082754;28;20095;-77
2023/12/21 00:25:45;;;;;;;19.17;10.35;;;;;;;;;;2078702;28;20208;-76
2023/12/21 00:27:06;;;;;;;26.23;11.98;;;;;;;;;;2076335;28;20501;-77
2023/12/21 00:28:27;;;;;;;22.33;11.65;;;;;;;;;;2075785;28;20121;-77
2023/12/21 00:29:48;;;;;;;25.15;11.93;;;;;;;;;;2078456;28;20060;-76
2023/12/21 00:31:09;;;;;;;24.30;10.65;;;;;;;;;;2076649;28;20039;-77
2023/12/21 00:32:30;;;;;;;25.88;11.57;;;;;;;;;;2083266;28;20033;-78
2023/12/21 00:33:50;;;;;;;32.67;11.65;;;;;;;;;;2080654;28;20586;-77
2023/12/21 00:35:11;;;;;;;22.05;12.93;;;;;;;;;;2083735;28;20037;-77
2023/12/21 00:36:32;;;;;;;27.27;12.52;;;;;;;;;;2088664;28;20041;-78
2023/12/21 00:37:53;;;;;;;23.55;11.02;;;;;;;;;;2089561;28;20032;-77
2023/12/21 00:39:14;;;;;;;26.05;11.43;;;;;;;;;;2086359;28;20043;-77
2023/12/21 00:40:35;;;;;;;16.92;9.88;;;;;;;;;;2082594;28;20484;-77
2023/12/21 00:41:56;;;;;;;22.77;12.20;;;;;;;;;;2080777;28;20041;-77
2023/12/21 00:43:17;;;;;;;19.80;10.13;;;;;;;;;;2089782;28;20202;-77
2023/12/21 00:44:38;;;;;;;23.85;11.05;;;;;;;;;;2088727;28;20121;-77
2023/12/21 00:45:58;;;;;;;17.23;10.68;;;;;;;;;;2094594;28;20040;-77
2023/12/21 00:47:19;;;;;;;22.60;10.25;;;;;;;;;;2081259;28;20029;-77
2023/12/21 00:48:40;;;;;;;19.55;9.93;;;;;;;;;;2096462;28;20154;-78
2023/12/21 00:50:01;;;;;;;21.73;11.18;;;;;;;;;;2098636;28;20120;-77
2023/12/21 00:51:22;;;;;;;24.20;11.25;;;;;;;;;;2096513;28;20024;-78
2023/12/21 00:52:43;;;;;;;25.95;11.60;;;;;;;;;;2097927;28;20484;-77
2023/12/21 00:54:04;;;;;;;22.30;10.23;;;;;;;;;;2093172;28;20114;-77
2023/12/21 00:55:25;;;;;;;21.70;10.35;;;;;;;;;;2089301;28;20100;-77
2023/12/21 00:56:45;;;;;;;19.58;10.05;;;;;;;;;;2089337;28;20492;-77
2023/12/21 00:58:06;;;;;;;21.65;11.25;;;;;;;;;;2088480;28;20032;-76
2023/12/21 00:59:27;;;;;;;22.83;10.63;;;;;;;;;;2088759;28;20044;-78
2023/12/21 01:00:48;;;;;;;17.40;9.82;;;;;;;;;;2091461;28;20573;-77
2023/12/21 01:02:09;;;;;;;25.50;10.90;;;;;;;;;;2098404;28;20108;-77
2023/12/21 01:03:30;;;;;;;25.83;11.30;;;;;;;;;;2089057;28;20026;-77
2023/12/21 01:04:51;;;;;;;19.75;10.00;;;;;;;;;;2095749;28;20392;-77
2023/12/21 01:06:12;;;;;;;19.05;11.20;;;;;;;;;;2079965;28;20107;-77
2023/12/21 01:07:33;;;;;;;22.13;10.93;;;;;;;;;;2078085;28;20045;-77
2023/12/21 01:08:54;;;;;;;25.02;10.73;;;;;;;;;;2091241;28;20379;-78
2023/12/21 01:10:15;;;;;;;19.70;10.18;;;;;;;;;;2096719;28;20035;-76
2023/12/21 01:11:36;;;;;;;22.15;10.82;;;;;;;;;;2104397;28;20025;-78
2023/12/21 01:12:57;;;;;;;26.27;10.95;;;;;;;;;;2092622;28;20045;-77
2023/12/21 01:14:18;;;;;;;22.02;10.77;;;;;;;;;;2100145;28;20024;-77
2023/12/21 01:15:38;;;;;;;15.15;9.70;;;;;;;;;;2093607;28;20451;-77
2023/12/21 01:16:59;;;;;;;20.25;10.57;;;;;;;;;;2102904;28;20443;-79
2023/12/21 01:18:20;;;;;;;23.65;10.90;;;;;;;;;;2091966;28;20075;-74
2023/12/21 01:19:41;;;;;;;21.40;10.00;;;;;;;;;;2097007;28;20083;-77
2023/12/21 01:21:02;;;;;;;18.85;10.45;;;;;;;;;;2087097;28;20028;-77
2023/12/21 01:22:23;;;;;;;18.23;11.02;;;;;;;;;;2085717;28;20429;-78
2023/12/21 01:23:44;;;;;;;24.92;11.07;;;;;;;;;;2092378;28;20086;-78
2023/12/21 01:25:05;;;;;;;15.45;9.80;;;;;;;;;;2086660;28;20095;-77
2023/12/21 01:26:26;;;;;;;21.73;11.70;;;;;;;;;;2092597;28;20025;-78
2023/12/21 01:27:47;;;;;;;24.45;10.40;;;;;;;;;;2093998;28;20839;-76
2023/12/21 01:29:08;;;;;;;20.80;11.13;;;;;;;;;;2095756;28;20044;-77
2023/12/21 01:30:29;;;;;;;20.67;11.20;;;;;;;;;;2094552;28;20594;-78
2023/12/21 01:31:50;;;;;;;23.50;11.35;;;;;;;;;;2086127;28;20025;-77
2023/12/21 01:33:11;;;;;;;26.45;12.00;;;;;;;;;;2089716;28;20032;-76
2023/12/21 01:34:32;;;;;;;20.65;10.48;;;;;;;;;;2096969;28;20021;-76
2023/12/21 01:35:53;;;;;;;26.80;10.65;;;;;;;;;;2088227;28;20032;-77
2023/12/21 01:37:14;;;;;;;21.20;11.02;;;;;;;;;;2089229;28;20040;-77
2023/12/21 01:38:35;;;;;;;20.27;10.95;;;;;;;;;;2094808;28;20045;-77
2023/12/21 01:39:55;;;;;;;27.98;10.27;;;;;;;;;;2099576;28;20040;-77
2023/12/21 01:41:16;;;;;;;18.13;9.80;;;;;;;;;;2093877;28;20538;-77
2023/12/21 01:42:37;;;;;;;21.33;10.32;;;;;;;;;;2091530;28;20032;-77
2023/12/21 01:43:58;;;;;;;24.35;10.57;;;;;;;;;;2104173;28;20024;-76
2023/12/21 01:45:19;;;;;;;18.23;10.00;;;;;;;;;;2098820;28;20029;-76
2023/12/21 01:46:40;;;;;;;24.88;10.82;;;;;;;;;;2102754;28;20024;-76
2023/12/21 01:48:02;;;;;;;20.15;9.48;;;;;;;;;;2095771;28;20416;-76
2023/12/21 01:49:23;;;;;;;23.05;10.63;;;;;;;;;;2092223;28;20028;-76
2023/12/21 01:50:44;;;;;;;23.55;10.63;;;;;;;;;;2097079;28;20028;-77
2023/12/21 01:52:06;;;;;;;23.65;11.38;;;;;;;;;;2096719;28;20028;-76
2023/12/21 01:53:28;;;;;;;23.63;11.48;;;;;;;;;;2093714;28;20027;-77
2023/12/21 01:54:48;;;;;;;20.73;10.93;;;;;;;;;;2093624;28;20028;-76
2023/12/21 01:56:09;;;;;;;22.42;10.57;;;;;;;;;;2101394;28;20028;-76
2023/12/21 01:57:30;;;;;;;24.42;12.27;;;;;;;;;;2097853;28;20028;-76
2023/12/21 01:58:51;;;;;;;18.55;10.73;;;;;;;;;;2097490;28;20040;-76
2023/12/21 02:00:12;;;;;;;23.42;10.93;;;;;;;;;;2093185;28;20769;-77
2023/12/21 02:01:33;;;;;;;25.23;12.87;;;;;;;;;;2093194;28;20054;-78
2023/12/21 02:02:54;;;;;;;27.00;11.35;;;;;;;;;;2093104;28;20433;-77
2023/12/21 02:04:15;;;;;;;21.95;10.65;;;;;;;;;;2097535;28;20044;-76
2023/12/21 02:05:36;;;;;;;21.75;9.88;;;;;;;;;;2095425;28;20020;-76
2023/12/21 02:06:57;;;;;;;28.90;11.43;;;;;;;;;;2097198;28;20355;-76
2023/12/21 02:08:18;;;;;;;23.90;10.15;;;;;;;;;;2095463;28;20028;-76
2023/12/21 02:09:39;;;;;;;22.63;10.52;;;;;;;;;;2089306;28;20048;-77
2023/12/21 02:11:04;;;;;;;25.05;10.27;;;;;;;;;;2086460;28;20341;-76
2023/12/21 02:12:25;;;;;;;21.98;11.18;;;;;;;;;;2089404;28;20040;-76
2023/12/21 02:13:46;;;;;;;21.60;11.55;;;;;;;;;;2085421;28;20032;-77
2023/12/21 02:15:07;;;;;;;25.23;12.20;;;;;;;;;;2086976;28;20033;-76
2023/12/21 02:16:33;;;;;;;21.38;11.10;;;;;;;;;;2085847;28;20024;-77
2023/12/21 02:17:56;;;;;;;27.67;12.23;;;;;;;;;;2081151;28;20025;-77
2023/12/21 02:19:18;;;;;;;31.38;10.30;;;;;;;;;;2085083;28;20047;-77
2023/12/21 02:20:40;;;;;;;28.20;12.48;;;;;;;;;;2087311;28;20141;-76
2023/12/21 02:22:01;;;;;;;;;;;;;;;;;;2082244;28;20458;-77
2023/12/21 02:23:22;;;;;;;27.27;11.70;;;;;;;;;;2086124;28;19909;-77
2023/12/21 02:24:43;;;;;;;25.90;10.88;;;;;;;;;;2096546;28;20094;-77
2023/12/21 02:26:04;;;;;;;23.55;12.35;;;;;;;;;;2091145;28;20063;-76
2023/12/21 02:27:25;;;;;;;24.63;11.30;;;;;;;;;;2089983;28;20040;-76
2023/12/21 02:28:46;;;;;;;28.13;10.85;;;;;;;;;;2085926;28;20051;-77
2023/12/21 02:30:07;;;;;;;23.65;12.07;;;;;;;;;;2087156;28;20039;-77
2023/12/21 02:31:28;;;;;;;20.52;10.48;;;;;;;;;;2081896;28;20056;-76
2023/12/21 02:32:49;;;;;;;25.00;11.75;;;;;;;;;;2073753;28;20026;-76
2023/12/21 02:34:09;;;;;;;27.25;11.77;;;;;;;;;;2075698;28;20551;-76
2023/12/21 02:35:30;;;;;;;23.48;11.93;;;;;;;;;;2085587;28;20043;-77
2023/12/21 02:36:51;;;;;;;24.98;11.70;;;;;;;;;;2082366;28;20032;-75
2023/12/21 02:38:12;;;;;;;19.25;10.90;;;;;;;;;;2088431;28;20041;-77
2023/12/21 02:39:33;;;;;;;21.35;10.57;;;;;;;;;;2086853;28;20021;-76
2023/12/21 02:40:54;;;;;;;29.67;12.38;;;;;;;;;;2085147;28;20405;-77
2023/12/21 02:42:15;;;;;;;20.95;11.95;;;;;;;;;;2095824;28;20032;-76
2023/12/21 02:43:36;;;;;;;26.15;11.55;;;;;;;;;;2090513;28;20033;-78
2023/12/21 02:44:57;;;;;;;27.80;12.13;;;;;;;;;;2085441;28;20036;-76
2023/12/21 02:46:19;;;;;;;22.20;10.45;;;;;;;;;;2083124;28;20109;-77
2023/12/21 02:47:39;;;;;;;19.80;11.15;;;;;;;;;;2092352;28;20032;-77
2023/12/21 02:49:00;;;;;;;30.58;12.20;;;;;;;;;;2083460;28;20038;-78
2023/12/21 02:50:21;;;;;;;22.70;11.80;;;;;;;;;;2087146;28;20021;-76
2023/12/21 02:51:42;;;;;;;35.40;12.63;;;;;;;;;;2088540;28;20032;-76
2023/12/21 02:53:03;;;;;;;27.80;12.73;;;;;;;;;;2081363;28;20409;-77
2023/12/21 02:54:24;;;;;;;28.08;11.00;;;;;;;;;;2096306;28;20415;-76
2023/12/21 02:55:45;;;;;;;21.48;10.75;;;;;;;;;;2093754;28;20025;-76
2023/12/21 02:57:06;;;;;;;22.75;11.82;;;;;;;;;;2088139;28;20029;-77
2023/12/21 02:58:27;;;;;;;27.42;11.85;;;;;;;;;;2074413;28;20371;-77
2023/12/21 02:59:48;;;;;;;19.23;9.70;;;;;;;;;;2090596;28;20033;-75
2023/12/21 03:01:09;;;;;;;28.23;10.63;;;;;;;;;;2084639;28;20036;-76
2023/12/21 03:02:30;;;;;;;20.92;9.85;;;;;;;;;;2085197;28;20443;-76
2023/12/21 03:03:51;;;;;;;27.50;10.50;;;;;;;;;;2095574;28;20041;-76
2023/12/21 03:05:12;;;;;;;26.42;12.23;;;;;;;;;;2089469;28;20518;-76
2023/12/21 03:06:33;;;;;;;22.42;9.55;;;;;;;;;;2087824;28;20041;-76
2023/12/21 03:07:54;;;;;;;24.85;10.43;;;;;;;;;;2086136;28;20029;-76
2023/12/21 03:09:14;;;;;;;22.98;10.15;;;;;;;;;;2081889;28;20110;-76
2023/12/21 03:10:35;;;;;;;26.98;11.48;;;;;;;;;;2084807;28;20030;-76
2023/12/21 03:11:57;;;;;;;27.70;11.38;;;;;;;;;;2091126;28;20036;-76
2023/12/21 03:13:18;;;;;;;28.77;10.82;;;;;;;;;;2097064;28;20029;-76
2023/12/21 03:14:39;;;;;;;22.95;10.30;;;;;;;;;;2088195;28;21495;-76
2023/12/21 03:16:03;;;;;;;29.27;10.85;;;;;;;;;;2084051;28;20091;-76
2023/12/21 03:17:24;;;;;;;30.95;12.60;;;;;;;;;;2084276;28;20098;-75
2023/12/21 03:18:46;;;;;;;23.80;11.38;;;;;;;;;;2079307;28;20041;-76
2023/12/21 03:20:07;;;;;;;30.70;11.50;;;;;;;;;;2089088;28;20040;-76
2023/12/21 03:21:28;;;;;;;29.63;11.82;;;;;;;;;;2093523;28;20029;-76
2023/12/21 03:22:49;;;;;;;25.90;10.73;;;;;;;;;;2086635;28;20029;-76
2023/12/21 03:24:10;;;;;;;25.13;11.35;;;;;;;;;;2082028;28;20032;-76
2023/12/21 03:25:31;;;;;;;34.58;11.48;;;;;;;;;;2091062;28;20029;-77
2023/12/21 03:26:52;;;;;;;26.27;11.50;;;;;;;;;;2083049;28;20503;-77
2023/12/21 03:28:14;;;;;;;25.07;11.20;;;;;;;;;;2090486;28;20062;-77
2023/12/21 03:29:35;;;;;;;27.52;10.85;;;;;;;;;;2087545;28;20037;-76
2023/12/21 03:30:55;;;;;;;25.27;10.45;;;;;;;;;;2080941;28;20039;-78
2023/12/21 03:32:16;;;;;;;29.15;11.27;;;;;;;;;;2081903;28;20034;-77
2023/12/21 03:33:37;;;;;;;21.02;11.00;;;;;;;;;;2092439;28;20495;-76
2023/12/21 03:34:58;;;;;;;26.10;12.23;;;;;;;;;;2092189;28;20032;-76
2023/12/21 03:36:19;;;;;;;25.85;12.65;;;;;;;;;;2085509;28;20030;-76
2023/12/21 03:37:40;;;;;;;28.77;12.05;;;;;;;;;;2092250;28;20372;-77
2023/12/21 03:39:01;;;;;;;31.90;12.13;;;;;;;;;;2093099;28;20033;-76
2023/12/21 03:40:22;;;;;;;22.67;11.55;;;;;;;;;;2086906;28;20099;-75
2023/12/21 03:41:43;;;;;;;19.05;11.82;;;;;;;;;;2090822;28;20066;-77
2023/12/21 03:43:04;;;;;;;22.52;11.88;;;;;;;;;;2083751;28;20068;-78
2023/12/21 03:44:25;;;;;;;22.77;10.55;;;;;;;;;;2092709;28;20415;-77
2023/12/21 03:45:45;;;;;;;24.73;13.32;;;;;;;;;;2083833;28;20045;-77
2023/12/21 03:47:06;;;;;;;24.17;11.73;;;;;;;;;;2088578;28;20079;-76
2023/12/21 03:48:27;;;;;;;18.63;10.85;;;;;;;;;;2099499;28;20032;-77
2023/12/21 03:49:48;;;;;;;19.83;10.18;;;;;;;;;;2099292;28;20029;-76
2023/12/21 03:51:09;;;;;;;28.75;11.77;;;;;;;;;;2101923;28;20031;-76
2023/12/21 03:52:30;;;;;;;29.15;12.02;;;;;;;;;;2083200;28;20041;-76
2023/12/21 03:53:51;;;;;;;20.88;10.40;;;;;;;;;;2091068;28;20039;-76
2023/12/21 03:55:12;;;;;;;31.25;11.18;;;;;;;;;;2095318;28;20074;-76
2023/12/21 03:56:33;;;;;;;25.40;10.65;;;;;;;;;;2089682;28;20041;-77
2023/12/21 03:57:53;;;;;;;29.77;11.98;;;;;;;;;;2095193;28;20059;-76
2023/12/21 03:59:14;;;;;;;24.75;9.90;;;;;;;;;;2098520;28;20376;-77
2023/12/21 04:00:35;;;;;;;18.38;10.73;;;;;;;;;;2090697;28;20032;-76
2023/12/21 04:01:56;;;;;;;23.77;10.40;;;;;;;;;;2086890;28;20103;-77
2023/12/21 04:03:17;;;;;;;24.38;10.75;;;;;;;;;;2092378;28;20037;-75
2023/12/21 04:04:38;;;;;;;21.20;11.05;;;;;;;;;;2086490;28;20040;-76
2023/12/21 04:05:59;;;;;;;21.20;9.50;;;;;;;;;;2094637;28;20109;-76
2023/12/21 04:07:20;;;;;;;21.33;10.50;;;;;;;;;;2088552;28;20107;-75
2023/12/21 04:08:41;;;;;;;18.92;9.88;;;;;;;;;;2094473;28;20044;-77
2023/12/21 04:10:02;;;;;;;24.63;10.60;;;;;;;;;;2097896;28;20065;-76
2023/12/21 04:11:23;;;;;;;27.00;11.40;;;;;;;;;;2096084;28;20021;-76
2023/12/21 04:12:44;;;;;;;26.13;11.00;;;;;;;;;;2092929;28;20025;-76
2023/12/21 04:14:04;;;;;;;26.42;11.50;;;;;;;;;;2094863;28;20033;-76
2023/12/21 04:15:25;;;;;;;24.48;11.02;;;;;;;;;;2093602;28;20046;-77
2023/12/21 04:16:48;;;;;;;14.73;9.70;;;;;;;;;;2099322;28;20066;-78
2023/12/21 04:18:09;;;;;;;;;;;;;;;;;;2095750;28;20572;-76
2023/12/21 04:19:30;;;;;;;27.58;11.20;;;;;;;;;;2091469;28;20263;-76
2023/12/21 04:20:51;;;;;;;26.45;10.00;;;;;;;;;;2093636;28;20036;-77
2023/12/21 04:22:11;;;;;;;27.98;10.85;;;;;;;;;;2097028;28;20040;-75
2023/12/21 04:23:33;;;;;;;23.48;11.48;;;;;;;;;;2094301;28;20043;-76
2023/12/21 04:24:53;;;;;;;24.77;10.98;;;;;;;;;;2084064;28;23860;-75
2023/12/21 04:26:21;;;;;;;28.30;10.57;;;;;;;;;;2092629;28;20039;-75
2023/12/21 04:27:42;;;;;;;25.63;11.32;;;;;;;;;;2086744;28;20029;-76
2023/12/21 04:29:02;;;;;;;21.17;10.98;;;;;;;;;;2091031;28;20044;-76
2023/12/21 04:30:23;;;;;;;30.85;11.93;;;;;;;;;;2093851;28;20032;-76
2023/12/21 04:31:44;;;;;;;28.42;10.93;;;;;;;;;;2094618;28;20090;-76
2023/12/21 04:33:05;;;;;;;28.08;10.43;;;;;;;;;;2095613;28;20086;-76
2023/12/21 04:34:26;;;;;;;30.98;10.35;;;;;;;;;;2087789;28;20033;-76
2023/12/21 04:35:47;;;;;;;20.52;10.30;;;;;;;;;;2090427;28;20091;-77
2023/12/21 04:37:08;;;;;;;25.80;10.67;;;;;;;;;;2088162;28;20079;-75
2023/12/21 04:38:29;;;;;;;21.70;10.57;;;;;;;;;;2094289;28;20428;-76
2023/12/21 04:39:50;;;;;;;21.50;9.63;;;;;;;;;;2090304;28;20037;-76
2023/12/21 04:41:11;;;;;;;30.17;11.18;;;;;;;;;;2093886;28;20090;-77
2023/12/21 04:42:32;;;;;;;24.15;10.75;;;;;;;;;;2096545;28;20045;-77
2023/12/21 04:43:53;;;;;;;29.58;10.90;;;;;;;;;;2089284;28;20029;-78
2023/12/21 04:45:14;;;;;;;29.05;10.95;;;;;;;;;;2087445;28;20147;-77
2023/12/21 04:46:35;;;;;;;30.15;12.02;;;;;;;;;;2092983;28;20043;-77
2023/12/21 04:47:56;;;;;;;34.15;11.13;;;;;;;;;;2086515;28;20582;-77
2023/12/21 04:49:19;;;;;;;23.27;11.20;;;;;;;;;;2082385;28;20046;-78
2023/12/21 04:50:39;;;;;;;25.65;11.05;;;;;;;;;;2082473;28;20104;-77
2023/12/21 04:52:00;;;;;;;26.00;11.68;;;;;;;;;;2091691;28;20028;-77
2023/12/21 04:53:22;;;;;;;;;;;;;;;;;;2085909;28;20444;-77
2023/12/21 04:54:44;;;;;;;27.63;12.52;;;;;;;;;;2093559;28;19954;-77
2023/12/21 04:56:05;;;;;;;27.88;13.05;;;;;;;;;;2087337;28;20483;-77
2023/12/21 04:57:26;;;;;;;27.88;12.40;;;;;;;;;;2091077;28;20066;-77
2023/12/21 04:58:47;;;;;;;23.33;12.35;;;;;;;;;;2087512;28;20045;-77
2023/12/21 05:00:08;;;;;;;22.63;11.32;;;;;;;;;;2095119;28;20032;-76
2023/12/21 05:01:32;;;;;;;20.70;11.87;;;;;;;;;;2094284;28;20032;-77
2023/12/21 05:02:52;;;;;;;23.63;11.95;;;;;;;;;;2097013;28;20453;-77
2023/12/21 05:04:13;;;;;;;29.83;13.23;;;;;;;;;;2093915;28;20033;-78
2023/12/21 05:05:34;;;;;;;27.98;11.63;;;;;;;;;;2095685;28;20098;-77
2023/12/21 05:06:57;;;;;;;21.10;10.27;;;;;;;;;;2095307;28;20135;-78
2023/12/21 05:08:18;;;;;;;23.30;11.75;;;;;;;;;;2094956;28;20033;-77
2023/12/21 05:09:39;;;;;;;20.65;11.07;;;;;;;;;;2095964;28;20041;-77
2023/12/21 05:11:00;;;;;;;16.92;10.45;;;;;;;;;;2093983;28;20045;-77
2023/12/21 05:12:20;;;;;;;20.90;10.57;;;;;;;;;;2093256;28;20072;-78
2023/12/21 05:13:41;;;;;;;23.15;11.63;;;;;;;;;;2092745;28;20507;-77
2023/12/21 05:15:02;;;;;;;22.45;10.90;;;;;;;;;;2092780;28;20086;-77
2023/12/21 05:16:23;;;;;;;24.02;10.20;;;;;;;;;;2095366;28;20101;-77
2023/12/21 05:17:46;;;;;;;21.63;10.48;;;;;;;;;;2093484;28;20032;-78
2023/12/21 05:19:07;;;;;;;24.00;10.73;;;;;;;;;;2084550;28;20374;-78
2023/12/21 05:20:27;;;;;;;21.48;11.10;;;;;;;;;;2095871;28;20032;-77
2023/12/21 05:21:48;;;;;;;25.65;10.45;;;;;;;;;;2094980;28;20040;-77
2023/12/21 05:23:09;;;;;;;14.07;9.20;;;;;;;;;;2096021;28;20033;-79
2023/12/21 05:24:30;;;;;;;19.73;9.80;;;;;;;;;;2094356;28;20378;-78
2023/12/21 05:25:51;;;;;;;17.15;9.90;;;;;;;;;;2091802;28;20037;-78
2023/12/21 05:27:12;;;;;;;28.67;10.63;;;;;;;;;;2095015;28;20086;-78
2023/12/21 05:28:33;;;;;;;21.55;10.60;;;;;;;;;;2093984;28;20024;-78
2023/12/21 05:29:54;;;;;;;21.67;10.88;;;;;;;;;;2085865;28;20037;-78
2023/12/21 05:31:21;;;;;;;22.63;9.60;;;;;;;;;;2085823;28;20107;-77
2023/12/21 05:32:42;;;;;;;21.10;9.13;;;;;;;;;;2083143;28;20404;-78
2023/12/21 05:34:04;;;;;;;25.10;10.73;;;;;;;;;;2090290;28;20041;-76
2023/12/21 05:35:25;;;;;;;19.07;9.93;;;;;;;;;;2094160;28;20086;-75
2023/12/21 05:36:45;;;;;;;18.20;8.82;;;;;;;;;;2086816;28;20454;-78
2023/12/21 05:38:06;;;;;;;19.27;9.35;;;;;;;;;;2090828;28;20025;-77
2023/12/21 05:39:27;;;;;;;17.23;9.27;;;;;;;;;;2094495;28;20044;-78
2023/12/21 05:40:48;;;;;;;18.98;9.48;;;;;;;;;;2095497;28;20578;-78
2023/12/21 05:42:09;;;;;;;15.43;9.02;;;;;;;;;;2095314;28;20032;-77
2023/12/21 05:43:30;;;;;;;21.15;8.77;;;;;;;;;;2097499;28;20032;-77
2023/12/21 05:44:52;;;;;;;16.55;8.70;;;;;;;;;;2095407;28;20504;-78
2023/12/21 05:46:13;;;;;;;28.73;10.48;;;;;;;;;;2095869;28;20041;-77
2023/12/21 05:47:33;;;;;;;22.13;9.02;;;;;;;;;;2092644;28;20060;-77
2023/12/21 05:48:54;;;;;;;17.33;9.90;;;;;;;;;;2099079;28;20491;-78
2023/12/21 05:50:15;;;;;;;19.77;8.88;;;;;;;;;;2090879;28;20040;-76
2023/12/21 05:51:36;;;;;;;23.25;8.70;;;;;;;;;;2096676;28;20086;-76
2023/12/21 05:52:57;;;;;;;19.33;8.82;;;;;;;;;;2095937;28;20033;-75
2023/12/21 05:54:18;;;;;;;18.08;8.77;;;;;;;;;;2095307;28;20450;-76
2023/12/21 05:55:39;;;;;;;23.52;9.05;;;;;;;;;;2099059;28;20032;-76
2023/12/21 05:57:02;;;;;;;14.10;7.78;;;;;;;;;;2096450;28;20032;-76
2023/12/21 05:58:22;;;;;;;22.38;8.93;;;;;;;;;;2095434;28;20483;-77
2023/12/21 05:59:43;;;;;;;19.10;8.95;;;;;;;;;;2092525;28;20036;-78
2023/12/21 06:01:04;;;;;;;18.00;8.77;;;;;;;;;;2093696;28;20024;-76
2023/12/21 06:02:25;;;;;;;19.50;8.20;;;;;;;;;;2097050;28;20028;-77
2023/12/21 06:03:46;;;;;;;18.75;8.65;;;;;;;;;;2096654;28;20412;-77
2023/12/21 06:05:07;;;;;;;15.02;8.05;;;;;;;;;;2090982;28;20060;-76
2023/12/21 06:06:28;;;;;;;18.92;8.73;;;;;;;;;;2096012;28;20409;-77
2023/12/21 06:07:49;;;;;;;16.60;8.15;;;;;;;;;;2091109;28;20067;-76
2023/12/21 06:09:10;;;;;;;16.83;8.05;;;;;;;;;;2085637;28;20115;-76
2023/12/21 06:10:30;;;;;;;13.73;8.02;;;;;;;;;;2088942;28;20520;-77
2023/12/21 06:11:51;;;;;;;19.27;9.80;;;;;;;;;;2073452;28;20033;-77
2023/12/21 06:13:12;;;;;;;15.65;7.78;;;;;;;;;;2083162;28;20037;-76
2023/12/21 06:14:33;;;;;;;16.20;9.73;;;;;;;;;;2081309;28;20036;-77
2023/12/21 06:15:55;;;;;;;19.38;8.05;;;;;;;;;;2084154;28;20029;-77
2023/12/21 06:17:15;;;;;;;22.53;8.63;;;;;;;;;;2084753;28;20036;-78
2023/12/21 06:18:36;;;;;;;19.05;8.63;;;;;;;;;;2086590;28;20496;-77
2023/12/21 06:19:57;;;;;;;16.65;11.05;;;;;;;;;;2083275;28;20098;-78
2023/12/21 06:21:18;;;;;;;11.45;7.80;;;;;;;;;;2091544;28;20024;-78
2023/12/21 06:22:39;;;;;;;17.92;9.65;;;;;;;;;;2082816;28;20029;-78
2023/12/21 06:24:00;;;;;;;16.92;8.43;;;;;;;;;;2084536;28;20748;-77
2023/12/21 06:25:21;;;;;;;18.05;8.82;;;;;;;;;;2083159;28;20040;-79
2023/12/21 06:26:42;;;;;;;20.85;9.63;;;;;;;;;;2090257;28;20146;-78
2023/12/21 06:28:03;;;;;;;15.65;8.57;;;;;;;;;;2086611;28;20163;-77
2023/12/21 06:29:24;;;;;;;19.95;8.60;;;;;;;;;;2082062;28;20119;-78
2023/12/21 06:30:44;;;;;;;16.27;9.63;;;;;;;;;;2082419;28;20048;-79
2023/12/21 06:32:06;;;;;;;16.50;9.07;;;;;;;;;;2086278;28;20029;-78
2023/12/21 06:33:27;;;;;;;13.60;8.65;;;;;;;;;;2084579;28;20037;-75
2023/12/21 06:34:48;;;;;;;18.98;8.95;;;;;;;;;;2085566;28;20475;-75
2023/12/21 06:36:09;;;;;;;24.45;10.40;;;;;;;;;;2082286;28;20152;-75
2023/12/21 06:37:30;;;;;;;22.58;10.15;;;;;;;;;;2084541;28;20075;-75
2023/12/21 06:38:52;;;;;;;18.10;9.75;;;;;;;;;;2082522;28;20473;-75
2023/12/21 06:40:12;;;;;;;13.57;9.65;;;;;;;;;;2083847;28;20382;-74
2023/12/21 06:41:33;;;;;;;17.95;9.48;;;;;;;;;;2085918;28;20476;-77
2023/12/21 06:42:54;;;;;;;25.98;9.25;;;;;;;;;;2086273;28;20028;-76
2023/12/21 06:44:16;;;;;;;20.45;9.70;;;;;;;;;;2086425;28;20102;-76
2023/12/21 06:45:37;;;;;;;17.80;9.30;;;;;;;;;;2082553;28;20131;-76
2023/12/21 06:46:58;;;;;;;16.38;8.60;;;;;;;;;;2088494;28;20029;-76
2023/12/21 06:48:19;;;;;;;16.60;9.73;;;;;;;;;;2083544;28;20037;-76
2023/12/21 06:49:40;;;;;;;16.75;9.52;;;;;;;;;;2082260;28;20045;-77
2023/12/21 06:51:00;;;;;;;19.95;9.95;;;;;;;;;;2083345;28;20410;-76
2023/12/21 06:52:21;;;;;;;21.88;9.65;;;;;;;;;;2088076;28;20029;-76
2023/12/21 06:53:42;;;;;;;19.33;9.85;;;;;;;;;;2085898;28;20025;-76
2023/12/21 06:55:03;;;;;;;16.27;9.68;;;;;;;;;;2087675;28;20033;-75
2023/12/21 06:56:24;;;;;;;16.98;9.55;;;;;;;;;;2088234;28;20116;-75
2023/12/21 06:57:45;;;;;;;17.48;9.13;;;;;;;;;;2086211;28;20122;-76
2023/12/21 06:59:06;;;;;;;13.90;8.57;;;;;;;;;;2088463;28;20052;-76
2023/12/21 07:00:27;;;;;;;18.60;9.23;;;;;;;;;;2087682;28;20079;-75
2023/12/21 07:01:48;;;;;;;17.33;10.00;;;;;;;;;;2085392;28;20091;-76
2023/12/21 07:03:09;;;;;;;18.35;8.98;;;;;;;;;;2083826;28;20040;-75
2023/12/21 07:04:30;;;;;;;18.23;8.25;;;;;;;;;;2086710;28;20360;-75
2023/12/21 07:05:50;;;;;;;20.60;9.25;;;;;;;;;;2085391;28;20037;-76
2023/12/21 07:07:12;;;;;;;22.88;9.27;;;;;;;;;;2088301;28;20040;-75
2023/12/21 07:08:33;;;;;;;15.95;8.68;;;;;;;;;;2089035;28;20029;-76
2023/12/21 07:09:54;;;;;;;19.25;8.55;;;;;;;;;;2092829;28;20043;-75
2023/12/21 07:11:17;;;;;;;15.27;8.90;;;;;;;;;;2093048;28;20037;-77
2023/12/21 07:12:37;;;;;;;17.95;9.20;;;;;;;;;;2094319;28;20024;-76
2023/12/21 07:13:58;;;;;;;15.82;9.30;;;;;;;;;;2091624;28;20553;-77
2023/12/21 07:15:19;;;;;;;16.85;8.57;;;;;;;;;;2092225;28;20041;-77
2023/12/21 07:16:40;;;;;;;14.85;8.88;;;;;;;;;;2090062;28;20033;-74
2023/12/21 07:18:01;;;;;;;18.02;8.88;;;;;;;;;;2093756;28;20036;-76
2023/12/21 07:19:22;;;;;;;22.58;9.88;;;;;;;;;;2091199;28;20062;-77
2023/12/21 07:20:43;;;;;;;23.38;9.43;;;;;;;;;;2092593;28;20657;-77
2023/12/21 07:22:04;;;;;;;15.68;9.45;;;;;;;;;;2091724;28;20040;-77
2023/12/21 07:23:25;;;;;;;15.57;8.68;;;;;;;;;;2094698;28;20037;-76
2023/12/21 07:24:46;;;;;;;13.70;8.75;;;;;;;;;;2094577;28;20075;-77
2023/12/21 07:26:09;;;;;;;20.70;9.32;;;;;;;;;;2089580;28;20472;-77
2023/12/21 07:27:30;;;;;;;18.00;8.05;;;;;;;;;;2090543;28;20033;-77
2023/12/21 07:28:51;;;;;;;20.30;9.32;;;;;;;;;;2098227;28;20403;-77
2023/12/21 07:30:12;;;;;;;21.27;9.60;;;;;;;;;;2094148;28;20128;-75
2023/12/21 07:31:32;;;;;;;20.67;8.82;;;;;;;;;;2089174;28;20098;-76
2023/12/21 07:32:53;;;;;;;13.93;8.00;;;;;;;;;;2096854;28;20377;-77
2023/12/21 07:34:14;;;;;;;15.60;8.48;;;;;;;;;;2095627;28;20070;-76
2023/12/21 07:35:35;;;;;;;14.90;8.10;;;;;;;;;;2094144;28;20036;-77
2023/12/21 07:36:56;;;;;;;17.40;7.70;;;;;;;;;;2094485;28;20093;-76
2023/12/21 07:38:17;;;;;;;15.65;8.38;;;;;;;;;;2093336;28;20029;-76
2023/12/21 07:39:38;;;;;;;21.63;7.93;;;;;;;;;;2096221;28;20450;-77
2023/12/21 07:40:59;;;;;;;22.08;9.75;;;;;;;;;;2096010;28;20040;-77
2023/12/21 07:42:20;;;;;;;16.08;7.82;;;;;;;;;;2095703;28;20082;-78
2023/12/21 07:43:41;;;;;;;17.90;8.35;;;;;;;;;;2091989;28;20070;-76
2023/12/21 07:45:02;;;;;;;18.38;9.50;;;;;;;;;;2094673;28;20032;-76
2023/12/21 07:46:23;;;;;;;19.52;9.40;;;;;;;;;;2094965;28;20060;-76
2023/12/21 07:47:44;;;;;;;16.60;9.48;;;;;;;;;;2091050;28;20032;-77
2023/12/21 07:49:05;;;;;;;16.75;8.77;;;;;;;;;;2096500;28;20044;-74
2023/12/21 07:50:27;;;;;;;19.33;8.63;;;;;;;;;;2096836;28;20398;-76
2023/12/21 07:51:48;;;;;;;15.23;8.52;;;;;;;;;;2095422;28;20044;-75
2023/12/21 07:53:09;;;;;;;12.18;8.23;;;;;;;;;;2093331;28;20078;-74
2023/12/21 07:54:30;;;;;;;13.15;8.65;;;;;;;;;;2093337;28;20086;-75